Time;durP1;ratioP1;P1;durP2;ratioP2;P2;SDS_P1;SDS_P2;PMS_P1;PMS_P2;Temp;Humidity;BMP_temperature;BMP_pressure;BME280_temperature;BME280_humidity;BME280_pressure;Samples;Min_cycle;Max_cycle;Signal;HPM_P1;HPM_P2
2023/07/07 00:02:06;;;;;;;1.85;1.75;;;19.90;95.60;;;;;;5070741;28;20176;-71
2023/07/07 00:04:32;;;;;;;1.63;1.63;;;19.90;95.80;;;;;;5068725;28;20289;-71
2023/07/07 00:06:58;;;;;;;1.85;1.75;;;19.90;95.90;;;;;;5057938;28;20187;-71
2023/07/07 00:09:27;;;;;;;1.80;1.70;;;19.90;96.00;;;;;;5069968;28;20189;-71
2023/07/07 00:11:53;;;;;;;1.83;1.73;;;19.90;96.10;;;;;;5068776;28;20254;-70
2023/07/07 00:14:19;;;;;;;1.85;1.75;;;19.90;96.20;;;;;;5072726;28;20270;-72
2023/07/07 00:16:45;;;;;;;2.33;1.63;;;19.90;96.10;;;;;;5068709;28;20225;-71
2023/07/07 00:19:11;;;;;;;3.58;1.67;;;19.90;96.20;;;;;;5069876;28;20190;-71
2023/07/07 00:21:38;;;;;;;2.20;2.10;;;19.90;96.10;;;;;;5069923;28;20221;-71
2023/07/07 00:24:05;;;;;;;2.28;2.15;;;19.90;96.00;;;;;;5053109;28;20183;-72
2023/07/07 00:26:32;;;;;;;1.20;1.20;;;19.90;96.10;;;;;;5068728;28;20695;-71
2023/07/07 00:28:58;;;;;;;1.63;1.63;;;19.80;96.80;;;;;;5049338;28;20274;-71
2023/07/07 00:31:25;;;;;;;2.40;2.30;;;19.70;97.20;;;;;;5073246;28;20201;-71
2023/07/07 00:33:51;;;;;;;3.20;1.52;;;19.80;96.70;;;;;;5051041;28;20274;-71
2023/07/07 00:36:16;;;;;;;1.80;1.80;;;19.70;96.80;;;;;;5078116;28;20266;-71
2023/07/07 00:38:42;;;;;;;3.10;1.60;;;19.70;97.00;;;;;;5072720;28;20183;-72
2023/07/07 00:41:08;;;;;;;1.77;1.67;;;19.80;96.70;;;;;;5054064;28;20213;-71
2023/07/07 00:43:35;;;;;;;1.58;1.58;;;19.80;96.70;;;;;;5071258;28;20199;-72
2023/07/07 00:46:02;;;;;;;1.52;1.42;;;19.80;96.30;;;;;;5069275;28;20213;-71
2023/07/07 00:48:38;;;;;;;1.50;1.50;;;19.80;96.40;;;;;;5054488;28;20186;-71
2023/07/07 00:51:08;;;;;;;1.98;1.88;;;19.80;96.10;;;;;;5076381;28;20174;-71
2023/07/07 00:53:35;;;;;;;2.35;1.98;;;19.90;96.00;;;;;;5071164;28;20613;-72
2023/07/07 00:56:09;;;;;;;3.05;1.63;;;19.90;96.30;;;;;;5076996;28;20183;-72
2023/07/07 00:58:36;;;;;;;2.05;1.42;;;19.90;96.40;;;;;;5069344;28;20191;-71
2023/07/07 01:01:12;;;;;;;1.70;1.70;;;19.90;96.50;;;;;;5070450;28;20218;-71
2023/07/07 01:03:51;;;;;;;1.95;1.85;;;19.80;96.30;;;;;;5073356;28;20174;-72
2023/07/07 01:06:22;;;;;;;1.88;1.77;;;19.80;96.00;;;;;;5070628;28;20174;-70
2023/07/07 01:08:56;;;;;;;2.47;2.15;;;19.80;96.40;;;;;;5069819;28;20175;-71
2023/07/07 01:11:22;;;;;;;1.70;1.60;;;19.80;96.20;;;;;;5067821;28;20206;-70
2023/07/07 01:13:48;;;;;;;1.83;1.83;;;19.80;96.30;;;;;;5052506;28;20218;-71
2023/07/07 01:17:07;;;;;;;1.55;1.55;;;19.80;96.30;;;;;;5072192;28;20178;-71
2023/07/07 01:19:53;;;;;;;1.75;1.75;;;19.80;96.00;;;;;;5048400;28;20275;-71
2023/07/07 01:22:40;;;;;;;1.88;1.77;;;19.80;96.20;;;;;;5088391;28;20669;-70
2023/07/07 01:25:27;;;;;;;1.80;1.70;;;19.70;96.90;;;;;;5064215;28;20551;-71
2023/07/07 01:28:24;;;;;;;2.05;1.95;;;19.70;96.70;;;;;;5066937;28;20178;-71
2023/07/07 01:31:21;;;;;;;1.88;1.77;;;19.70;96.20;;;;;;5067770;28;20676;-70
2023/07/07 01:33:48;;;;;;;3.60;1.92;;;19.70;96.60;;;;;;5062945;28;20203;-71
2023/07/07 01:36:14;;;;;;;2.05;1.98;;;19.70;96.80;;;;;;5052302;28;20178;-71
2023/07/07 01:38:46;;;;;;;1.95;1.85;;;19.70;96.90;;;;;;5070774;28;20187;-72
2023/07/07 01:41:14;;;;;;;2.08;1.98;;;19.70;97.10;;;;;;5069329;28;20210;-71
2023/07/07 01:43:49;;;;;;;2.00;1.90;;;19.70;97.10;;;;;;5072316;28;20179;-71
2023/07/07 01:46:38;;;;;;;1.85;1.85;;;19.70;97.10;;;;;;5068079;28;20205;-71
2023/07/07 01:49:09;;;;;;;2.08;2.00;;;19.60;98.20;;;;;;5057877;28;20179;-71
2023/07/07 01:52:03;;;;;;;2.03;1.70;;;19.50;98.50;;;;;;5071195;28;20651;-71
2023/07/07 01:54:34;;;;;;;2.20;2.10;;;19.50;98.40;;;;;;5069044;28;20580;-71
2023/07/07 01:57:01;;;;;;;2.08;1.98;;;19.40;98.50;;;;;;5072839;28;20180;-71
2023/07/07 01:59:27;;;;;;;2.35;2.25;;;19.30;98.50;;;;;;5073130;28;20190;-71
2023/07/07 02:01:55;;;;;;;4.30;2.67;;;19.30;98.50;;;;;;5075851;28;20182;-71
2023/07/07 02:04:21;;;;;;;2.53;2.42;;;19.30;98.50;;;;;;5061462;28;20721;-71
2023/07/07 02:06:47;;;;;;;2.17;2.08;;;19.30;98.50;;;;;;5069175;28;20187;-71
2023/07/07 02:09:12;;;;;;;3.42;2.30;;;19.20;98.50;;;;;;5073763;28;20267;-71
2023/07/07 02:11:38;;;;;;;2.95;2.35;;;19.20;98.50;;;;;;5075572;28;20261;-71
2023/07/07 02:14:04;;;;;;;2.33;2.22;;;19.20;98.50;;;;;;5071520;28;20187;-71
2023/07/07 02:16:29;;;;;;;2.60;2.50;;;19.10;98.50;;;;;;5074931;28;20237;-72
2023/07/07 02:18:55;;;;;;;2.65;2.47;;;19.10;98.50;;;;;;5072826;28;20175;-72
2023/07/07 02:21:20;;;;;;;2.45;2.25;;;19.10;98.50;;;;;;5072877;28;20223;-71
2023/07/07 02:23:46;;;;;;;2.58;2.45;;;19.20;98.50;;;;;;5080054;28;20194;-72
2023/07/07 02:26:18;;;;;;;3.30;3.08;;;19.30;98.50;;;;;;5072249;28;20190;-71
2023/07/07 02:28:45;;;;;;;2.67;2.58;;;19.30;98.50;;;;;;5053874;28;20247;-72
2023/07/07 02:31:11;;;;;;;3.47;3.28;;;19.30;98.50;;;;;;5075258;28;20190;-71
2023/07/07 02:33:36;;;;;;;3.47;3.17;;;19.30;98.50;;;;;;5072434;28;21907;-71
2023/07/07 02:36:04;;;;;;;2.72;2.53;;;19.30;98.50;;;;;;5071866;28;20179;-71
2023/07/07 02:38:30;;;;;;;3.00;2.83;;;19.30;98.50;;;;;;5072928;28;20171;-71
2023/07/07 02:40:57;;;;;;;3.35;3.05;;;19.30;98.50;;;;;;5071765;28;20729;-71
2023/07/07 02:43:23;;;;;;;4.50;3.67;;;19.40;98.50;;;;;;5071332;28;20175;-71
2023/07/07 02:45:49;;;;;;;3.38;3.17;;;19.40;98.50;;;;;;5071879;28;20182;-71
2023/07/07 02:48:18;;;;;;;5.82;3.83;;;19.40;98.50;;;;;;5071415;28;20183;-71
2023/07/07 02:51:01;;;;;;;5.88;3.00;;;19.30;98.50;;;;;;5053785;28;20190;-71
2023/07/07 02:53:32;;;;;;;4.47;2.90;;;19.30;98.50;;;;;;5074246;28;20760;-71
2023/07/07 02:55:57;;;;;;;3.42;3.22;;;19.30;98.50;;;;;;5071918;28;20187;-71
2023/07/07 02:58:24;;;;;;;3.67;3.15;;;19.40;98.50;;;;;;5070141;28;20202;-71
2023/07/07 03:00:50;;;;;;;3.80;3.60;;;19.40;98.50;;;;;;5069918;28;20696;-71
2023/07/07 03:03:17;;;;;;;3.85;3.63;;;19.40;98.50;;;;;;5070591;28;20232;-71
2023/07/07 03:05:44;;;;;;;4.10;3.80;;;19.40;98.50;;;;;;5075527;28;20182;-71
2023/07/07 03:08:10;;;;;;;4.03;3.53;;;19.40;98.50;;;;;;5069832;28;20232;-70
2023/07/07 03:10:37;;;;;;;3.53;3.33;;;19.50;98.50;;;;;;5071660;28;20186;-71
2023/07/07 03:13:03;;;;;;;3.78;3.55;;;19.40;98.50;;;;;;5071388;28;20175;-71
2023/07/07 03:15:38;;;;;;;3.60;3.40;;;19.50;98.50;;;;;;5072137;28;20177;-71
2023/07/07 03:18:08;;;;;;;3.95;3.65;;;19.50;98.50;;;;;;5054131;28;20262;-71
2023/07/07 03:20:35;;;;;;;5.50;4.40;;;19.40;98.50;;;;;;5070226;28;20211;-71
2023/07/07 03:23:01;;;;;;;4.72;4.15;;;19.40;98.50;;;;;;5074494;28;20175;-71
2023/07/07 03:25:27;;;;;;;5.05;4.32;;;19.50;98.50;;;;;;5069296;28;20259;-71
2023/07/07 03:27:53;;;;;;;4.30;3.97;;;19.50;98.50;;;;;;5071818;28;20647;-71
2023/07/07 03:30:18;;;;;;;4.85;4.45;;;19.50;98.50;;;;;;5068395;28;20583;-71
2023/07/07 03:32:44;;;;;;;4.85;4.55;;;19.50;98.50;;;;;;5074712;28;20213;-71
2023/07/07 03:35:10;;;;;;;4.35;4.05;;;19.50;98.50;;;;;;5076068;28;20577;-71
2023/07/07 03:37:39;;;;;;;5.32;4.50;;;19.60;98.50;;;;;;5069708;28;20179;-71
2023/07/07 03:40:06;;;;;;;4.75;4.43;;;19.60;98.40;;;;;;5071809;28;20715;-71
2023/07/07 03:42:33;;;;;;;5.30;4.35;;;19.60;98.30;;;;;;5072404;28;20179;-71
2023/07/07 03:44:59;;;;;;;4.97;4.32;;;19.70;98.20;;;;;;5060464;28;20786;-71
2023/07/07 03:47:25;;;;;;;6.65;4.75;;;19.70;98.20;;;;;;5070244;28;20207;-71
2023/07/07 03:49:51;;;;;;;4.90;4.53;;;19.70;98.10;;;;;;5082718;28;20279;-71
2023/07/07 03:52:17;;;;;;;4.88;4.22;;;19.70;97.90;;;;;;5075091;28;20736;-71
2023/07/07 03:54:43;;;;;;;5.30;4.80;;;19.70;98.00;;;;;;5069696;28;20285;-71
2023/07/07 03:57:12;;;;;;;7.72;5.18;;;19.70;97.80;;;;;;5068999;28;20254;-70
2023/07/07 03:59:38;;;;;;;5.30;4.80;;;19.80;98.00;;;;;;5072102;28;20187;-71
2023/07/07 04:02:04;;;;;;;5.55;4.93;;;19.90;97.70;;;;;;5079288;28;20658;-71
2023/07/07 04:04:30;;;;;;;6.03;5.43;;;19.80;97.80;;;;;;5070867;28;20236;-71
2023/07/07 04:06:57;;;;;;;6.80;5.22;;;19.90;97.70;;;;;;5069823;28;20205;-71
2023/07/07 04:09:23;;;;;;;5.45;4.93;;;19.90;97.60;;;;;;5074530;28;20183;-71
2023/07/07 04:11:49;;;;;;;6.13;4.70;;;20.00;97.70;;;;;;5068895;28;20187;-71
2023/07/07 04:14:15;;;;;;;6.00;4.97;;;20.00;97.50;;;;;;5069915;28;20197;-71
2023/07/07 04:16:40;;;;;;;5.75;5.13;;;20.00;97.30;;;;;;5073686;28;20652;-71
2023/07/07 04:19:06;;;;;;;6.55;5.90;;;20.00;97.20;;;;;;5070192;28;20706;-70
2023/07/07 04:21:34;;;;;;;6.68;5.40;;;20.10;97.10;;;;;;5069399;28;20651;-70
2023/07/07 04:24:00;;;;;;;5.07;4.68;;;20.20;97.20;;;;;;5066489;28;20183;-71
2023/07/07 04:26:28;;;;;;;7.10;5.30;;;20.20;97.00;;;;;;5069856;28;20201;-72
2023/07/07 04:28:54;;;;;;;5.60;5.18;;;20.30;97.00;;;;;;5067619;28;20195;-71
2023/07/07 04:31:23;;;;;;;6.00;5.45;;;20.30;96.80;;;;;;5072887;28;20573;-71
2023/07/07 04:33:49;;;;;;;5.60;4.25;;;20.30;96.80;;;;;;5050263;28;20202;-72
2023/07/07 04:36:15;;;;;;;6.18;5.40;;;20.40;96.60;;;;;;5069763;28;20222;-72
2023/07/07 04:38:41;;;;;;;5.72;5.30;;;20.40;96.40;;;;;;5068324;28;20660;-72
2023/07/07 04:41:10;;;;;;;5.53;4.95;;;20.50;96.30;;;;;;5068903;28;20238;-70
2023/07/07 04:43:41;;;;;;;7.18;5.32;;;20.50;96.20;;;;;;5069577;28;20644;-72
2023/07/07 04:46:08;;;;;;;5.45;4.95;;;20.60;96.10;;;;;;5068442;28;20177;-72
2023/07/07 04:48:37;;;;;;;5.18;4.78;;;20.60;95.90;;;;;;5069831;28;20307;-72
2023/07/07 04:51:08;;;;;;;9.43;6.75;;;20.70;95.70;;;;;;5069341;28;20213;-72
2023/07/07 04:53:35;;;;;;;5.65;5.20;;;20.90;95.20;;;;;;5066973;28;20183;-71
2023/07/07 04:56:04;;;;;;;5.68;5.18;;;20.90;95.20;;;;;;5068152;28;20216;-70
2023/07/07 04:58:30;;;;;;;5.28;4.90;;;21.00;95.10;;;;;;5051671;28;20237;-71
2023/07/07 05:01:20;;;;;;;6.25;5.40;;;21.10;94.80;;;;;;5068184;28;20234;-72
2023/07/07 05:03:51;;;;;;;6.18;5.57;;;21.10;94.40;;;;;;5071369;28;20185;-72
2023/07/07 05:06:18;;;;;;;5.80;5.30;;;21.00;94.40;;;;;;5069350;28;20183;-73
2023/07/07 05:08:44;;;;;;;5.95;5.35;;;21.00;94.60;;;;;;5048903;28;20174;-73
2023/07/07 05:11:12;;;;;;;7.13;6.07;;;21.10;94.80;;;;;;5047991;28;20605;-74
2023/07/07 05:13:38;;;;;;;6.82;5.68;;;21.20;94.30;;;;;;5067896;28;20629;-73
2023/07/07 05:16:03;;;;;;;7.47;5.20;;;21.30;94.00;;;;;;5052034;28;20175;-71
2023/07/07 05:18:29;;;;;;;6.32;5.45;;;21.40;93.90;;;;;;5068550;28;20194;-71
2023/07/07 05:20:56;;;;;;;6.03;5.38;;;21.60;93.60;;;;;;5062099;28;20273;-71
2023/07/07 05:23:22;;;;;;;7.50;6.35;;;21.70;93.40;;;;;;5064770;28;20580;-71
2023/07/07 05:25:48;;;;;;;6.45;5.85;;;21.70;93.00;;;;;;5066361;28;20179;-71
2023/07/07 05:28:13;;;;;;;6.00;5.53;;;21.70;93.10;;;;;;5050210;28;20260;-71
2023/07/07 05:30:39;;;;;;;6.20;5.65;;;21.70;92.70;;;;;;5067546;28;20187;-70
2023/07/07 05:33:05;;;;;;;7.55;6.38;;;21.70;92.20;;;;;;5071041;28;20252;-72
2023/07/07 05:35:31;;;;;;;6.95;6.32;;;21.80;92.00;;;;;;5073202;28;20177;-71
2023/07/07 05:37:57;;;;;;;7.00;6.30;;;21.70;92.00;;;;;;5068513;28;20195;-72
2023/07/07 05:40:22;;;;;;;6.15;5.63;;;21.70;92.30;;;;;;5074747;28;20207;-72
2023/07/07 05:42:48;;;;;;;8.05;6.20;;;21.80;92.10;;;;;;5073081;28;20171;-72
2023/07/07 05:45:13;;;;;;;6.65;5.07;;;21.80;91.90;;;;;;5072902;28;20236;-73
2023/07/07 05:47:39;;;;;;;7.90;6.07;;;21.90;91.90;;;;;;5073210;28;20202;-72
2023/07/07 05:50:05;;;;;;;5.97;5.47;;;21.90;92.10;;;;;;5070932;28;20626;-73
2023/07/07 05:52:31;;;;;;;6.93;5.85;;;21.80;92.00;;;;;;5063413;28;20195;-73
2023/07/07 05:54:57;;;;;;;7.10;6.40;;;21.70;91.90;;;;;;5070756;28;20209;-73
2023/07/07 05:57:23;;;;;;;6.43;5.82;;;21.70;92.00;;;;;;5056613;28;20186;-73
2023/07/07 05:59:49;;;;;;;11.13;6.18;;;21.80;92.30;;;;;;5076534;28;20489;-73
2023/07/07 06:02:14;;;;;;;6.95;6.22;;;21.70;92.30;;;;;;5072350;28;20188;-73
2023/07/07 06:04:40;;;;;;;7.28;6.00;;;21.70;92.60;;;;;;5068138;28;20182;-73
2023/07/07 06:07:07;;;;;;;9.63;6.45;;;21.80;92.80;;;;;;5071072;28;20183;-72
2023/07/07 06:09:32;;;;;;;12.90;6.32;;;21.80;92.10;;;;;;5070187;28;20174;-72
2023/07/07 06:11:59;;;;;;;9.95;6.68;;;21.80;92.50;;;;;;5072290;28;20186;-72
2023/07/07 06:14:25;;;;;;;5.97;5.38;;;21.80;92.20;;;;;;5072204;28;20182;-72
2023/07/07 06:16:50;;;;;;;7.78;6.00;;;21.80;92.00;;;;;;5073415;28;20175;-71
2023/07/07 06:19:16;;;;;;;6.40;5.82;;;21.90;92.20;;;;;;5072526;28;20187;-71
2023/07/07 06:21:42;;;;;;;7.03;6.35;;;21.90;92.20;;;;;;5058179;28;20207;-72
2023/07/07 06:24:07;;;;;;;6.88;6.28;;;22.00;91.40;;;;;;5066087;28;20661;-71
2023/07/07 06:26:33;;;;;;;7.00;6.30;;;21.90;91.40;;;;;;5075195;28;20565;-71
2023/07/07 06:28:58;;;;;;;8.32;7.20;;;21.90;91.30;;;;;;5070783;28;20178;-72
2023/07/07 06:31:24;;;;;;;7.28;6.35;;;21.90;91.60;;;;;;5075488;28;20204;-72
2023/07/07 06:33:50;;;;;;;6.97;6.25;;;21.90;91.10;;;;;;5072011;28;20181;-72
2023/07/07 06:36:15;;;;;;;6.32;5.82;;;21.80;90.90;;;;;;5079274;28;20179;-72
2023/07/07 06:38:41;;;;;;;5.88;5.32;;;21.90;90.90;;;;;;5073992;28;20183;-71
2023/07/07 06:41:11;;;;;;;6.53;5.95;;;21.90;90.50;;;;;;5076037;28;20743;-71
2023/07/07 06:43:37;;;;;;;7.07;6.43;;;22.00;90.50;;;;;;5075304;28;20186;-73
2023/07/07 06:46:03;;;;;;;6.75;6.18;;;22.10;90.60;;;;;;5072819;28;20585;-72
2023/07/07 06:48:28;;;;;;;7.90;6.20;;;22.20;90.00;;;;;;5075985;28;20620;-72
2023/07/07 06:50:54;;;;;;;6.22;5.60;;;22.40;89.80;;;;;;5066295;28;20179;-72
2023/07/07 06:53:19;;;;;;;6.70;5.32;;;22.40;88.90;;;;;;5068917;28;20190;-73
2023/07/07 06:55:45;;;;;;;5.50;5.10;;;22.60;88.80;;;;;;5067745;28;20206;-72
2023/07/07 06:58:12;;;;;;;8.25;6.25;;;22.60;88.70;;;;;;5073665;28;20175;-72
2023/07/07 07:00:38;;;;;;;6.45;5.65;;;22.80;88.40;;;;;;5074382;28;20213;-72
2023/07/07 07:03:04;;;;;;;7.13;5.75;;;22.90;88.40;;;;;;5075352;28;20175;-72
2023/07/07 07:05:29;;;;;;;6.68;5.72;;;23.10;86.90;;;;;;5074395;28;20183;-72
2023/07/07 07:07:55;;;;;;;7.70;5.82;;;23.10;87.00;;;;;;5074051;28;20214;-72
2023/07/07 07:10:21;;;;;;;6.85;5.93;;;23.20;86.80;;;;;;5075480;28;20179;-72
2023/07/07 07:12:48;;;;;;;6.75;5.25;;;23.30;86.10;;;;;;5074873;28;20187;-72
2023/07/07 07:15:14;;;;;;;6.88;6.28;;;23.00;86.20;;;;;;5075276;28;20239;-72
2023/07/07 07:17:39;;;;;;;5.28;4.97;;;22.80;86.50;;;;;;5076289;28;20319;-72
2023/07/07 07:20:10;;;;;;;6.75;5.35;;;22.70;87.20;;;;;;5070617;28;20285;-72
2023/07/07 07:22:35;;;;;;;6.20;5.60;;;22.90;87.20;;;;;;5071095;28;20179;-72
2023/07/07 07:25:01;;;;;;;6.28;5.55;;;22.90;86.60;;;;;;5071220;28;20175;-72
2023/07/07 07:27:27;;;;;;;6.75;5.13;;;23.00;86.50;;;;;;5075755;28;20258;-73
2023/07/07 07:29:52;;;;;;;6.07;5.57;;;23.00;86.60;;;;;;5078273;28;20179;-72
2023/07/07 07:32:18;;;;;;;6.10;5.38;;;23.10;86.30;;;;;;5073436;28;20719;-72
2023/07/07 07:34:44;;;;;;;6.25;5.70;;;23.10;86.20;;;;;;5068745;28;20240;-72
2023/07/07 07:37:10;;;;;;;6.07;5.45;;;23.20;86.50;;;;;;5073280;28;20600;-72
2023/07/07 07:39:36;;;;;;;6.20;5.65;;;23.20;86.10;;;;;;5065437;28;20265;-72
2023/07/07 07:42:03;;;;;;;6.65;6.05;;;23.00;86.60;;;;;;5069998;28;20211;-72
2023/07/07 07:44:29;;;;;;;6.50;5.40;;;23.10;86.90;;;;;;5063430;28;20187;-72
2023/07/07 07:46:56;;;;;;;6.93;6.30;;;23.10;87.20;;;;;;5076319;28;20186;-73
2023/07/07 07:49:24;;;;;;;7.22;6.32;;;23.20;87.10;;;;;;5053236;28;20206;-73
2023/07/07 07:51:49;;;;;;;6.40;5.90;;;23.30;86.70;;;;;;5069912;28;20178;-72
2023/07/07 07:54:18;;;;;;;6.88;6.00;;;23.20;86.80;;;;;;5069178;28;20564;-73
2023/07/07 07:56:45;;;;;;;6.10;5.70;;;23.40;87.10;;;;;;5070447;28;20183;-72
2023/07/07 07:59:11;;;;;;;8.98;6.63;;;23.40;86.70;;;;;;5073008;28;20197;-72
2023/07/07 08:01:37;;;;;;;7.20;6.15;;;23.50;86.60;;;;;;5066827;28;20222;-73
2023/07/07 08:04:03;;;;;;;8.70;6.30;;;23.60;86.40;;;;;;5063358;28;20251;-73
2023/07/07 08:06:30;;;;;;;9.68;6.28;;;23.60;86.40;;;;;;5045630;28;20715;-72
2023/07/07 08:08:55;;;;;;;6.68;5.50;;;23.80;86.80;;;;;;5051120;28;20194;-73
2023/07/07 08:11:47;;;;;;;6.38;5.88;;;23.90;86.10;;;;;;5045955;28;20198;-73
2023/07/07 08:14:20;;;;;;;6.20;5.70;;;24.00;85.90;;;;;;5037507;28;20998;-74
2023/07/07 08:16:46;;;;;;;6.57;5.53;;;24.10;85.40;;;;;;5069886;28;20211;-74
2023/07/07 08:19:13;;;;;;;9.15;5.40;;;24.10;85.40;;;;;;5074292;28;20636;-74
2023/07/07 08:21:39;;;;;;;6.30;5.70;;;24.30;83.70;;;;;;5066289;28;20222;-74
2023/07/07 08:24:05;;;;;;;4.97;4.65;;;24.40;84.00;;;;;;5073908;28;20604;-71
2023/07/07 08:26:32;;;;;;;10.52;5.97;;;24.50;83.70;;;;;;5074740;28;20205;-71
2023/07/07 08:28:58;;;;;;;5.90;5.38;;;24.50;82.90;;;;;;5073880;28;20207;-72
2023/07/07 08:31:24;;;;;;;6.47;5.88;;;24.60;83.10;;;;;;5068771;28;20231;-73
2023/07/07 08:33:50;;;;;;;9.70;6.20;;;24.70;82.90;;;;;;5047909;28;20226;-72
2023/07/07 08:36:16;;;;;;;6.00;5.55;;;24.60;83.70;;;;;;5072067;28;20248;-72
2023/07/07 08:38:42;;;;;;;7.65;5.43;;;24.50;84.00;;;;;;5051026;28;20226;-71
2023/07/07 08:41:08;;;;;;;6.40;5.80;;;24.30;84.70;;;;;;5051077;28;20255;-73
2023/07/07 08:43:35;;;;;;;6.72;6.03;;;24.30;85.40;;;;;;5049628;28;20765;-73
2023/07/07 08:46:35;;;;;;;6.35;5.35;;;24.40;86.10;;;;;;5067915;28;20689;-73
2023/07/07 08:49:32;;;;;;;6.25;5.47;;;24.40;85.10;;;;;;5051052;28;20212;-74
2023/07/07 08:52:12;;;;;;;5.32;4.93;;;24.50;84.50;;;;;;5048146;28;20301;-74
2023/07/07 08:55:03;;;;;;;12.48;5.40;;;24.70;85.00;;;;;;5070555;28;20217;-76
2023/07/07 08:57:35;;;;;;;8.55;4.85;;;24.90;83.80;;;;;;5071887;28;20205;-74
2023/07/07 09:00:17;;;;;;;5.78;5.28;;;25.10;82.90;;;;;;5069564;28;20770;-75
2023/07/07 09:03:00;;;;;;;7.93;5.15;;;25.20;81.80;;;;;;5054291;28;20202;-76
2023/07/07 09:06:01;;;;;;;5.60;4.72;;;25.40;82.30;;;;;;5071800;28;20268;-75
2023/07/07 09:08:56;;;;;;;5.70;5.20;;;25.50;81.50;;;;;;5055037;28;20202;-74
2023/07/07 09:11:43;;;;;;;6.80;6.18;;;25.30;81.70;;;;;;5054338;28;20217;-73
2023/07/07 09:14:11;;;;;;;7.38;5.13;;;25.30;81.40;;;;;;5063479;28;20202;-73
2023/07/07 09:16:38;;;;;;;12.85;5.38;;;25.50;81.30;;;;;;5074760;28;20186;-73
2023/07/07 09:19:23;;;;;;;5.70;5.15;;;25.50;81.00;;;;;;5072298;28;20218;-72
2023/07/07 09:22:07;;;;;;;6.07;5.28;;;25.50;80.60;;;;;;5057435;28;21236;-73
2023/07/07 09:24:41;;;;;;;8.05;5.57;;;25.60;80.20;;;;;;5069126;28;20196;-75
2023/07/07 09:27:27;;;;;;;5.95;5.47;;;25.70;79.60;;;;;;5068296;28;20266;-72
2023/07/07 09:30:27;;;;;;;6.03;5.53;;;25.90;79.70;;;;;;5071754;28;20254;-73
2023/07/07 09:32:53;;;;;;;5.60;5.13;;;26.00;78.60;;;;;;5031108;28;20286;-74
2023/07/07 09:35:21;;;;;;;6.45;5.82;;;26.10;77.60;;;;;;5072677;28;20278;-74
2023/07/07 09:38:09;;;;;;;6.15;5.68;;;26.00;78.10;;;;;;5060695;28;20202;-74
2023/07/07 09:40:35;;;;;;;5.38;4.88;;;26.10;78.70;;;;;;5030681;28;20222;-71
2023/07/07 09:43:23;;;;;;;5.50;5.05;;;26.30;77.70;;;;;;5076657;28;20580;-73
2023/07/07 09:46:24;;;;;;;5.47;4.63;;;26.60;75.20;;;;;;5070116;28;20208;-74
2023/07/07 09:49:31;;;;;;;4.85;4.28;;;26.80;73.70;;;;;;5060718;28;20603;-73
2023/07/07 09:52:32;;;;;;;5.85;5.18;;;27.10;73.60;;;;;;5066465;28;20869;-74
2023/07/07 09:55:00;;;;;;;5.70;5.32;;;27.40;75.00;;;;;;5072093;28;20205;-74
2023/07/07 09:57:34;;;;;;;6.00;5.47;;;27.60;74.30;;;;;;5072206;28;20206;-75
2023/07/07 10:00:04;;;;;;;10.00;5.80;;;27.50;72.80;;;;;;5084469;28;20225;-76
2023/07/07 10:02:30;;;;;;;5.38;4.88;;;27.40;73.90;;;;;;5052009;28;20236;-75
2023/07/07 10:05:06;;;;;;;6.40;5.13;;;27.50;73.10;;;;;;5072343;28;20210;-76
2023/07/07 10:07:36;;;;;;;5.38;4.97;;;27.60;74.20;;;;;;5050419;28;20210;-74
2023/07/07 10:10:04;;;;;;;4.97;4.55;;;27.80;73.20;;;;;;5068451;28;20616;-74
2023/07/07 10:12:29;;;;;;;5.10;4.78;;;27.90;73.00;;;;;;5056495;28;20237;-74
2023/07/07 10:14:55;;;;;;;5.63;5.13;;;28.10;71.80;;;;;;5073626;28;21250;-75
2023/07/07 10:17:53;;;;;;;5.15;4.72;;;28.20;72.20;;;;;;5075808;28;20226;-75
2023/07/07 10:20:20;;;;;;;6.15;5.60;;;28.20;72.10;;;;;;4980893;28;20262;-75
2023/07/07 10:22:46;;;;;;;6.85;5.03;;;28.00;71.60;;;;;;5069874;28;20214;-73
2023/07/07 10:25:14;;;;;;;5.85;5.35;;;27.90;71.20;;;;;;5073523;28;20202;-73
2023/07/07 10:27:51;;;;;;;5.50;5.10;;;27.80;71.60;;;;;;5078661;28;20330;-73
2023/07/07 10:30:17;;;;;;;5.13;4.78;;;27.90;71.60;;;;;;5076519;28;20334;-73
2023/07/07 10:32:43;;;;;;;4.70;4.15;;;27.80;71.20;;;;;;5083851;28;20654;-75
2023/07/07 10:35:09;;;;;;;4.82;4.25;;;28.10;71.80;;;;;;5069386;28;20194;-77
2023/07/07 10:37:37;;;;;;;4.88;4.57;;;28.40;70.40;;;;;;5074449;28;20285;-77
2023/07/07 10:40:04;;;;;;;9.35;4.70;;;28.70;69.90;;;;;;5076354;28;20187;-78
2023/07/07 10:42:31;;;;;;;5.15;4.85;;;29.20;70.10;;;;;;5078073;28;20227;-77
2023/07/07 10:44:59;;;;;;;5.20;4.80;;;30.00;68.60;;;;;;5055641;28;20695;-78
2023/07/07 10:47:28;;;;;;;12.93;5.10;;;30.70;67.80;;;;;;5073823;28;20199;-78
2023/07/07 10:49:56;;;;;;;5.72;5.22;;;31.20;65.00;;;;;;5058037;28;20201;-75
2023/07/07 10:52:45;;;;;;;5.35;4.95;;;31.30;63.90;;;;;;5058141;28;21698;-78
2023/07/07 10:55:40;;;;;;;6.55;4.60;;;31.30;64.20;;;;;;5075215;28;20201;-77
2023/07/07 10:58:24;;;;;;;5.30;4.95;;;31.20;64.90;;;;;;5070371;28;20263;-76
2023/07/07 11:00:59;;;;;;;5.25;4.85;;;30.30;66.50;;;;;;5078423;28;20214;-77
2023/07/07 11:03:57;;;;;;;5.22;4.82;;;30.40;67.60;;;;;;5072387;28;20198;-77
2023/07/07 11:07:04;;;;;;;4.43;4.20;;;30.90;66.80;;;;;;5077748;28;20225;-77
2023/07/07 11:09:42;;;;;;;7.97;4.50;;;31.80;64.80;;;;;;5026192;28;20680;-77
2023/07/07 11:12:31;;;;;;;5.25;4.93;;;32.60;63.50;;;;;;5075019;28;20286;-76
2023/07/07 11:15:21;;;;;;;8.27;4.80;;;33.50;61.80;;;;;;5048795;28;20179;-78
2023/07/07 11:18:09;;;;;;;5.50;5.00;;;34.00;60.50;;;;;;5073728;28;20181;-77
2023/07/07 11:21:11;;;;;;;5.40;4.95;;;33.70;60.80;;;;;;5076398;28;20794;-77
2023/07/07 11:24:01;;;;;;;6.60;5.68;;;33.40;62.10;;;;;;5053130;28;20201;-77
2023/07/07 11:26:40;;;;;;;3.60;3.35;;;33.20;62.90;;;;;;5059885;28;20162;-79
2023/07/07 11:29:39;;;;;;;19.45;3.47;;;33.00;61.80;;;;;;5076640;28;20305;-78
2023/07/07 11:32:25;;;;;;;2.88;2.50;;;32.70;61.20;;;;;;5011767;28;20179;-78
2023/07/07 11:34:59;;;;;;;2.65;2.55;;;32.20;61.90;;;;;;5079117;28;20174;-77
2023/07/07 11:37:48;;;;;;;8.85;2.45;;;31.70;61.10;;;;;;5073993;28;20239;-77
2023/07/07 11:40:43;;;;;;;4.07;2.25;;;31.20;61.30;;;;;;5025774;28;20748;-75
2023/07/07 11:43:52;;;;;;;3.50;2.13;;;30.70;60.30;;;;;;5076750;28;20181;-76
2023/07/07 11:46:43;;;;;;;7.97;2.42;;;30.30;61.10;;;;;;5048413;28;20706;-76
2023/07/07 11:49:28;;;;;;;14.95;2.92;;;29.90;62.10;;;;;;5080325;28;20182;-75
2023/07/07 11:52:35;;;;;;;9.35;2.72;;;29.70;62.00;;;;;;5050894;28;20232;-75
2023/07/07 11:55:36;;;;;;;4.13;2.08;;;29.50;64.60;;;;;;5020717;28;20210;-75
2023/07/07 11:58:21;;;;;;;16.77;2.47;;;29.40;64.40;;;;;;5079409;28;20181;-75
2023/07/07 12:01:31;;;;;;;2.80;2.70;;;29.10;64.70;;;;;;5061315;28;20201;-76
2023/07/07 12:04:15;;;;;;;7.88;2.90;;;28.90;66.40;;;;;;5053318;28;20671;-77
2023/07/07 12:06:52;;;;;;;6.53;2.65;;;28.60;67.90;;;;;;5055533;28;20206;-77
2023/07/07 12:09:38;;;;;;;2.53;2.33;;;28.20;68.90;;;;;;5075542;28;20185;-73
2023/07/07 12:12:36;;;;;;;2.95;2.75;;;28.00;69.70;;;;;;5061385;28;20208;-75
2023/07/07 12:15:15;;;;;;;2.40;2.30;;;27.80;70.30;;;;;;5058271;28;20179;-75
2023/07/07 12:17:48;;;;;;;2.03;1.98;;;27.50;72.20;;;;;;5059109;28;20255;-74
2023/07/07 12:20:18;;;;;;;2.67;2.58;;;27.20;72.40;;;;;;5055015;28;20210;-74
2023/07/07 12:22:46;;;;;;;3.95;2.63;;;26.70;74.60;;;;;;5079760;28;20191;-74
2023/07/07 12:25:15;;;;;;;7.75;2.67;;;26.20;77.90;;;;;;5073736;28;20250;-73
2023/07/07 12:27:44;;;;;;;5.50;2.63;;;25.90;78.10;;;;;;5077606;28;20174;-74
2023/07/07 12:30:16;;;;;;;2.60;2.42;;;25.50;80.60;;;;;;5078441;28;20186;-74
2023/07/07 12:32:42;;;;;;;2.17;1.98;;;25.00;77.60;;;;;;5055840;28;20592;-74
2023/07/07 12:35:16;;;;;;;2.60;2.47;;;24.70;77.50;;;;;;5092739;28;20186;-74
2023/07/07 12:37:42;;;;;;;2.03;2.03;;;24.70;79.60;;;;;;5078430;28;20198;-74
2023/07/07 12:40:11;;;;;;;1.90;1.90;;;25.10;78.20;;;;;;5059845;28;20261;-73
2023/07/07 12:42:42;;;;;;;3.78;2.53;;;25.70;77.00;;;;;;5056925;28;20183;-74
2023/07/07 12:45:31;;;;;;;6.25;2.53;;;26.30;75.90;;;;;;5059402;28;20556;-73
2023/07/07 12:48:04;;;;;;;2.47;2.35;;;26.70;73.70;;;;;;5077646;28;20183;-74
2023/07/07 12:50:35;;;;;;;2.58;2.38;;;27.00;72.90;;;;;;5059884;28;20601;-74
2023/07/07 12:53:05;;;;;;;3.17;2.97;;;27.00;75.20;;;;;;5073468;28;20186;-75
2023/07/07 12:55:36;;;;;;;3.28;3.03;;;26.50;76.70;;;;;;5077565;28;20198;-75
2023/07/07 12:58:05;;;;;;;2.67;2.45;;;26.20;77.50;;;;;;5057686;28;20187;-73
2023/07/07 13:00:39;;;;;;;3.10;2.53;;;26.30;78.70;;;;;;5071596;28;20195;-74
2023/07/07 13:03:11;;;;;;;3.50;3.25;;;27.00;75.50;;;;;;5059390;28;20202;-74
2023/07/07 13:05:46;;;;;;;2.33;2.22;;;27.60;74.90;;;;;;5059863;28;20178;-75
2023/07/07 13:08:32;;;;;;;2.50;2.30;;;28.30;71.80;;;;;;5053209;28;20179;-76
2023/07/07 13:11:35;;;;;;;2.83;2.63;;;29.30;68.30;;;;;;5070232;28;20652;-75